Time,TemperatureF,DewpointF,PressureIn,WindDirection,WindDirectionDegrees,WindSpeedMPH,WindSpeedGustMPH,Humidity,HourlyPrecipIn,Conditions,Clouds,dailyrainin,SoftwareType,DateUTC
2013-04-19 00:00:00,38.7,31.8,29.79,NW,312,9.0,19.0,76,0.00,,SKC,2.36,VWS V12.07,2013-04-19 05:00:00,
2013-04-19 00:06:00,38.7,32.1,29.79,West,276,3.0,12.0,77,0.00,,SKC,0.00,VWS V12.07,2013-04-19 05:06:00,
2013-04-19 00:13:00,38.7,31.5,29.79,NW,321,6.0,15.0,75,0.00,,SKC,0.00,VWS V12.07,2013-04-19 05:13:00,
2013-04-19 00:18:00,38.7,31.1,29.79,WNW,295,5.0,26.0,74,0.00,,SKC,0.00,VWS V12.07,2013-04-19 05:18:00,
2013-04-19 00:24:00,38.7,31.5,29.79,WNW,297,10.0,26.0,75,0.00,,SKC,0.00,VWS V12.07,2013-04-19 05:24:00,
2013-04-19 00:30:00,38.6,31.0,29.79,NNW,330,5.0,26.0,74,0.00,,SKC,0.00,VWS V12.07,2013-04-19 05:30:00,
2013-04-19 00:36:00,38.5,31.0,29.79,West,263,9.0,14.0,74,0.00,,SKC,0.00,VWS V12.07,2013-04-19 05:36:00,
2013-04-19 00:43:00,38.5,30.3,29.79,West,281,12.0,21.0,72,0.00,,SKC,0.00,VWS V12.07,2013-04-19 05:43:00,
2013-04-19 00:48:00,38.6,30.4,29.79,West,277,11.0,24.0,72,0.00,,SKC,0.00,VWS V12.07,2013-04-19 05:48:00,
2013-04-19 00:54:00,38.5,30.6,29.80,North,349,3.0,24.0,73,0.00,,SKC,0.00,VWS V12.07,2013-04-19 05:54:00,
2013-04-19 01:00:00,38.5,30.6,29.80,West,281,3.0,24.0,73,0.00,,SKC,0.00,VWS V12.07,2013-04-19 06:00:00,
2013-04-19 01:06:00,38.4,30.9,29.79,SW,235,4.0,12.0,74,0.00,,SKC,0.00,VWS V12.07,2013-04-19 06:06:00,
2013-04-19 01:13:00,38.4,30.9,29.80,NW,322,7.0,15.0,74,0.00,,SKC,0.00,VWS V12.07,2013-04-19 06:13:00,
2013-04-19 01:19:00,38.3,31.1,29.80,West,277,4.0,15.0,75,0.00,,SKC,0.00,VWS V12.07,2013-04-19 06:19:00,
2013-04-19 01:26:00,38.2,31.3,29.79,NW,315,9.0,15.0,76,0.00,,SKC,0.00,VWS V12.07,2013-04-19 06:26:00,
2013-04-19 01:33:00,38.2,31.0,29.79,WNW,291,8.0,17.0,75,0.00,,SKC,0.00,VWS V12.07,2013-04-19 06:33:00,
2013-04-19 01:38:00,38.1,31.5,29.79,WSW,253,7.0,17.0,77,0.00,,SKC,0.00,VWS V12.07,2013-04-19 06:38:00,
2013-04-19 01:43:00,38.1,31.2,29.79,West,265,10.0,19.0,76,0.00,,SKC,0.00,VWS V12.07,2013-04-19 06:43:00,
2013-04-19 01:49:00,38.0,31.4,29.79,WNW,290,5.0,19.0,77,0.00,,SKC,0.00,VWS V12.07,2013-04-19 06:49:00,
2013-04-19 01:56:00,38.0,31.4,29.79,NW,309,8.0,21.0,77,0.00,,SKC,0.00,VWS V12.07,2013-04-19 06:56:00,
2013-04-19 02:03:00,37.9,31.4,29.79,WNW,295,9.0,14.0,77,0.00,,SKC,0.00,VWS V12.07,2013-04-19 07:03:00,
2013-04-19 02:08:00,37.9,31.4,29.79,WNW,296,11.0,16.0,77,0.00,,SKC,0.00,VWS V12.07,2013-04-19 07:08:00,
2013-04-19 02:14:00,37.9,31.0,29.79,West,281,9.0,18.0,76,0.00,,SKC,0.00,VWS V12.07,2013-04-19 07:14:00,
2013-04-19 02:20:00,37.8,31.2,29.79,NW,309,4.0,18.0,77,0.00,,SKC,0.00,VWS V12.07,2013-04-19 07:20:00,
2013-04-19 02:25:00,37.8,31.2,29.79,WNW,283,5.0,18.0,77,0.00,,SKC,0.00,VWS V12.07,2013-04-19 07:25:00,
2013-04-19 02:31:00,37.8,31.2,29.79,WNW,283,9.0,14.0,77,0.00,,SKC,0.00,VWS V12.07,2013-04-19 07:31:00,
2013-04-19 02:38:00,37.7,31.1,29.79,WNW,300,10.0,16.0,77,0.00,,SKC,0.00,VWS V12.07,2013-04-19 07:38:00,
2013-04-19 02:43:00,37.7,31.1,29.79,NW,304,13.0,16.0,77,0.00,,SKC,0.00,VWS V12.07,2013-04-19 07:43:00,
2013-04-19 02:48:00,37.7,30.8,29.79,WNW,289,8.0,16.0,76,0.00,,SKC,0.00,VWS V12.07,2013-04-19 07:48:00,
2013-04-19 02:54:00,37.7,30.8,29.79,WNW,288,9.0,16.0,76,0.00,,SKC,0.00,VWS V12.07,2013-04-19 07:54:00,
2013-04-19 03:00:00,37.7,30.8,29.79,NW,312,8.0,19.0,76,0.00,,SKC,0.00,VWS V12.07,2013-04-19 08:00:00,
2013-04-19 03:06:00,37.7,31.1,29.79,SW,236,9.0,13.0,77,0.00,,SKC,0.00,VWS V12.07,2013-04-19 08:06:00,
2013-04-19 03:13:00,37.6,31.1,29.79,West,260,7.0,17.0,77,0.00,,SKC,0.00,VWS V12.07,2013-04-19 08:13:00,
2013-04-19 03:18:00,37.6,31.1,29.79,NW,311,6.0,17.0,77,0.00,,SKC,0.00,VWS V12.07,2013-04-19 08:18:00,
2013-04-19 03:24:00,37.5,31.0,29.79,WNW,293,10.0,21.0,77,0.00,,SKC,0.00,VWS V12.07,2013-04-19 08:24:00,
2013-04-19 03:30:00,37.5,31.0,29.79,NW,316,9.0,21.0,77,0.00,,SKC,0.00,VWS V12.07,2013-04-19 08:30:00,
2013-04-19 03:38:00,37.5,31.0,29.80,WNW,286,7.0,16.0,77,0.00,,SKC,0.00,VWS V12.07,2013-04-19 08:38:00,
2013-04-19 03:44:00,37.4,31.2,29.80,SW,229,4.0,16.0,78,0.00,,SKC,0.00,VWS V12.07,2013-04-19 08:44:00,
2013-04-19 03:50:00,37.4,31.5,29.80,WNW,288,14.0,16.0,79,0.00,,SKC,0.00,VWS V12.07,2013-04-19 08:50:00,
2013-04-19 03:56:00,37.3,31.1,29.80,WNW,302,11.0,17.0,78,0.00,,SKC,0.00,VWS V12.07,2013-04-19 08:56:00,
2013-04-19 04:03:00,37.1,29.9,29.80,NW,317,8.0,25.0,75,0.00,,SKC,0.00,VWS V12.07,2013-04-19 09:03:00,
2013-04-19 04:08:00,37.0,29.8,29.80,WNW,302,13.0,25.0,75,0.00,,SKC,0.00,VWS V12.07,2013-04-19 09:08:00,
2013-04-19 04:14:00,36.9,29.7,29.80,NW,308,14.0,25.0,75,0.00,,SKC,0.00,VWS V12.07,2013-04-19 09:14:00,
2013-04-19 04:20:00,36.9,29.4,29.80,NW,309,14.0,25.0,74,0.00,,SKC,0.00,VWS V12.07,2013-04-19 09:20:00,
2013-04-19 04:25:00,36.8,29.3,29.81,NW,310,14.0,25.0,74,0.00,,SKC,0.00,VWS V12.07,2013-04-19 09:25:00,
2013-04-19 04:31:00,36.8,29.6,29.81,WNW,296,9.0,13.0,75,0.00,,SKC,0.00,VWS V12.07,2013-04-19 09:31:00,
2013-04-19 04:38:00,36.7,30.2,29.81,NW,313,8.0,13.0,77,0.00,,SKC,0.00,VWS V12.07,2013-04-19 09:38:00,
2013-04-19 04:44:00,36.6,30.1,29.81,West,264,7.0,14.0,77,0.00,,SKC,0.00,VWS V12.07,2013-04-19 09:44:00,
2013-04-19 04:51:00,36.5,29.3,29.81,NW,321,20.0,20.0,75,0.00,,SKC,0.00,VWS V12.07,2013-04-19 09:51:00,
2013-04-19 04:58:00,36.5,29.7,29.81,NW,322,10.0,20.0,76,0.00,,SKC,0.00,VWS V12.07,2013-04-19 09:58:00,
2013-04-19 05:04:00,36.4,29.6,29.81,WNW,284,3.0,16.0,76,0.00,,SKC,0.00,VWS V12.07,2013-04-19 10:04:00,
2013-04-19 05:10:00,36.3,29.8,29.81,NW,314,10.0,16.0,77,0.00,,SKC,0.00,VWS V12.07,2013-04-19 10:10:00,
2013-04-19 05:15:00,36.3,30.1,29.82,West,280,3.0,16.0,78,0.00,,SKC,0.00,VWS V12.07,2013-04-19 10:15:00,
2013-04-19 05:21:00,36.2,29.7,29.82,NW,309,5.0,16.0,77,0.00,,SKC,0.00,VWS V12.07,2013-04-19 10:21:00,
2013-04-19 05:28:00,36.1,29.6,29.82,WNW,293,8.0,16.0,77,0.00,,SKC,0.00,VWS V12.07,2013-04-19 10:28:00,
2013-04-19 05:33:00,36.1,29.3,29.82,NW,313,11.0,13.0,76,0.00,,SKC,0.00,VWS V12.07,2013-04-19 10:33:00,
2013-04-19 05:38:00,36.1,29.3,29.82,WNW,300,9.0,13.0,76,0.00,,SKC,0.00,VWS V12.07,2013-04-19 10:38:00,
2013-04-19 05:44:00,36.1,29.3,29.82,WNW,293,4.0,20.0,76,0.00,,SKC,0.00,VWS V12.07,2013-04-19 10:44:00,
2013-04-19 05:50:00,36.1,29.0,29.82,WNW,293,12.0,20.0,75,0.00,,SKC,0.00,VWS V12.07,2013-04-19 10:50:00,
2013-04-19 05:56:00,36.2,28.7,29.82,WNW,297,6.0,20.0,74,0.00,,SKC,0.00,VWS V12.07,2013-04-19 10:56:00,
2013-04-19 06:03:00,36.2,29.0,29.82,West,267,8.0,15.0,75,0.00,,SKC,0.00,VWS V12.07,2013-04-19 11:03:00,
2013-04-19 06:09:00,36.2,29.0,29.83,WNW,300,7.0,21.0,75,0.00,,SKC,0.00,VWS V12.07,2013-04-19 11:09:00,
2013-04-19 06:15:00,36.2,29.0,29.83,WNW,296,12.0,21.0,75,0.00,,SKC,0.00,VWS V12.07,2013-04-19 11:15:00,
2013-04-19 06:21:00,36.2,29.0,29.83,NW,316,6.0,21.0,75,0.00,,SKC,0.00,VWS V12.07,2013-04-19 11:21:00,
2013-04-19 06:28:00,36.2,28.7,29.83,WNW,293,12.0,21.0,74,0.00,,SKC,0.00,VWS V12.07,2013-04-19 11:28:00,
2013-04-19 06:33:00,36.2,29.0,29.83,NW,315,10.0,13.0,75,0.00,,SKC,0.00,VWS V12.07,2013-04-19 11:33:00,
2013-04-19 06:39:00,36.2,29.0,29.84,WNW,288,7.0,18.0,75,0.00,,SKC,0.00,VWS V12.07,2013-04-19 11:39:00,
2013-04-19 06:45:00,36.2,29.0,29.84,West,280,6.0,18.0,75,0.00,,SKC,0.00,VWS V12.07,2013-04-19 11:45:00,
2013-04-19 06:51:00,36.2,28.7,29.84,WSW,256,10.0,18.0,74,0.00,,SKC,0.00,VWS V12.07,2013-04-19 11:51:00,
2013-04-19 06:58:00,36.2,29.0,29.84,WNW,297,3.0,18.0,75,0.00,,SKC,0.00,VWS V12.07,2013-04-19 11:58:00,
2013-04-19 07:03:00,36.2,29.0,29.84,West,280,6.0,16.0,75,0.00,,SKC,0.00,VWS V12.07,2013-04-19 12:03:00,
2013-04-19 07:09:00,36.2,29.0,29.84,WNW,286,8.0,16.0,75,0.00,,SKC,0.00,VWS V12.07,2013-04-19 12:09:00,
2013-04-19 07:15:00,36.0,29.5,29.84,WNW,288,9.0,16.0,77,0.00,,SKC,0.00,VWS V12.07,2013-04-19 12:15:00,
2013-04-19 07:21:00,35.9,29.7,29.85,WNW,295,14.0,16.0,78,0.00,,SKC,0.00,VWS V12.07,2013-04-19 12:21:00,
2013-04-19 07:28:00,35.8,29.6,29.85,WNW,297,9.0,16.0,78,0.00,,SKC,0.00,VWS V12.07,2013-04-19 12:28:00,
2013-04-19 07:33:00,35.8,29.9,29.85,SSW,210,7.0,17.0,79,0.00,,SKC,0.00,VWS V12.07,2013-04-19 12:33:00,
2013-04-19 07:39:00,35.8,29.9,29.85,West,277,6.0,17.0,79,0.00,,SKC,0.00,VWS V12.07,2013-04-19 12:39:00,
2013-04-19 07:45:00,35.9,30.0,29.85,WNW,287,5.0,17.0,79,0.00,,SKC,0.00,VWS V12.07,2013-04-19 12:45:00,
2013-04-19 07:51:00,36.0,30.1,29.85,NW,305,2.0,17.0,79,0.00,,SKC,0.00,VWS V12.07,2013-04-19 12:51:00,
2013-04-19 07:58:00,36.0,30.1,29.85,WSW,244,13.0,17.0,79,0.00,,SKC,0.00,VWS V12.07,2013-04-19 12:58:00,
2013-04-19 08:04:00,36.1,29.9,29.85,WNW,300,9.0,14.0,78,0.00,,SKC,0.00,VWS V12.07,2013-04-19 13:04:00,
2013-04-19 08:10:00,36.3,29.8,29.85,NW,309,2.0,14.0,77,0.00,,SKC,0.00,VWS V12.07,2013-04-19 13:10:00,
2013-04-19 08:16:00,36.6,30.1,29.85,WNW,298,4.0,14.0,77,0.00,,SKC,0.00,VWS V12.07,2013-04-19 13:16:00,
2013-04-19 08:23:00,36.8,30.6,29.86,West,281,11.0,18.0,78,0.00,,SKC,0.00,VWS V12.07,2013-04-19 13:23:00,
2013-04-19 08:29:00,36.7,30.5,29.85,WNW,287,8.0,18.0,78,0.00,,SKC,0.00,VWS V12.07,2013-04-19 13:29:00,
2013-04-19 08:35:00,36.7,30.8,29.85,WSW,243,5.0,15.0,79,0.00,,SKC,0.00,VWS V12.07,2013-04-19 13:35:00,
2013-04-19 08:41:00,36.8,30.3,29.85,WNW,287,16.0,16.0,77,0.00,,SKC,0.00,VWS V12.07,2013-04-19 13:41:00,
2013-04-19 08:48:00,37.0,30.5,29.85,NW,309,10.0,17.0,77,0.00,,SKC,0.00,VWS V12.07,2013-04-19 13:48:00,
2013-04-19 08:54:00,37.2,30.0,29.85,SW,228,10.0,17.0,75,0.00,,SKC,0.00,VWS V12.07,2013-04-19 13:54:00,
2013-04-19 09:00:00,37.4,30.5,29.85,WSW,246,7.0,18.0,76,0.00,,SKC,0.00,VWS V12.07,2013-04-19 14:00:00,
2013-04-19 09:06:00,37.6,30.4,29.85,NW,326,7.0,17.0,75,0.00,,SKC,0.00,VWS V12.07,2013-04-19 14:06:00,
2013-04-19 09:13:00,38.0,30.8,29.85,WNW,297,6.0,19.0,75,0.00,,SKC,0.00,VWS V12.07,2013-04-19 14:13:00,
2013-04-19 09:19:00,38.5,30.6,29.85,WNW,287,4.0,24.0,73,0.00,,SKC,0.00,VWS V12.07,2013-04-19 14:19:00,
2013-04-19 09:25:00,39.1,30.9,29.85,WNW,297,8.0,24.0,72,0.00,,SKC,0.00,VWS V12.07,2013-04-19 14:25:00,
2013-04-19 09:34:00,38.9,30.3,29.85,WSW,253,13.0,20.0,71,0.00,,SKC,0.00,VWS V12.07,2013-04-19 14:34:00,
2013-04-19 09:41:00,38.3,30.1,29.85,WNW,294,12.0,21.0,72,0.00,,SKC,0.00,VWS V12.07,2013-04-19 14:41:00,
2013-04-19 09:48:00,38.1,30.2,29.85,WNW,288,11.0,22.0,73,0.00,,SKC,0.00,VWS V12.07,2013-04-19 14:48:00,
2013-04-19 09:53:00,38.1,30.6,29.86,NW,305,7.0,22.0,74,0.00,,SKC,0.00,VWS V12.07,2013-04-19 14:53:00,
2013-04-19 09:59:00,38.4,30.5,29.86,WNW,298,13.0,22.0,73,0.00,,SKC,0.00,VWS V12.07,2013-04-19 14:59:00,
2013-04-19 10:06:00,38.5,30.3,29.86,North,350,6.0,27.0,72,0.00,,SKC,0.00,VWS V12.07,2013-04-19 15:06:00,
2013-04-19 10:13:00,38.9,30.0,29.86,WNW,295,10.0,27.0,70,0.00,,SKC,0.00,VWS V12.07,2013-04-19 15:13:00,
2013-04-19 10:19:00,39.1,29.8,29.86,NW,308,9.0,27.0,69,0.00,,SKC,0.00,VWS V12.07,2013-04-19 15:19:00,
2013-04-19 10:26:00,39.8,30.1,29.86,WNW,291,8.0,27.0,68,0.00,,SKC,0.00,VWS V12.07,2013-04-19 15:26:00,
2013-04-19 10:33:00,40.3,31.0,29.87,WSW,248,10.0,14.0,69,0.00,,SKC,0.00,VWS V12.07,2013-04-19 15:33:00,
2013-04-19 10:39:00,39.9,30.2,29.87,WNW,295,15.0,28.0,68,0.00,,SKC,0.00,VWS V12.07,2013-04-19 15:39:00,
2013-04-19 10:46:00,40.2,31.2,29.87,WNW,295,15.0,28.0,70,0.00,,SKC,0.00,VWS V12.07,2013-04-19 15:46:00,
2013-04-19 10:53:00,40.4,30.0,29.87,NW,308,23.0,28.0,66,0.00,,SKC,0.00,VWS V12.07,2013-04-19 15:53:00,
2013-04-19 10:59:00,40.6,30.1,29.87,NW,305,7.0,28.0,66,0.00,,SKC,0.00,VWS V12.07,2013-04-19 15:59:00,
2013-04-19 11:05:00,40.7,31.0,29.87,NW,308,11.0,18.0,68,0.00,,SKC,0.00,VWS V12.07,2013-04-19 16:05:00,
2013-04-19 11:11:00,40.8,30.0,29.88,WNW,297,13.0,20.0,65,0.00,,SKC,0.00,VWS V12.07,2013-04-19 16:11:00,
2013-04-19 11:18:00,40.9,29.7,29.87,WNW,299,18.0,28.0,64,0.00,,SKC,0.00,VWS V12.07,2013-04-19 16:18:00,
2013-04-19 11:24:00,41.1,29.9,29.88,NW,321,19.0,28.0,64,0.00,,SKC,0.00,VWS V12.07,2013-04-19 16:24:00,
2013-04-19 11:31:00,41.0,29.8,29.88,WNW,297,22.0,26.0,64,0.00,,SKC,0.00,VWS V12.07,2013-04-19 16:31:00,
2013-04-19 11:38:00,41.3,29.7,29.88,WNW,303,9.0,28.0,63,0.00,,SKC,0.00,VWS V12.07,2013-04-19 16:38:00,
2013-04-19 11:44:00,41.7,30.4,29.88,WNW,284,13.0,28.0,64,0.00,,SKC,0.00,VWS V12.07,2013-04-19 16:44:00,
2013-04-19 11:51:00,42.5,30.8,29.88,WNW,295,10.0,28.0,63,0.00,,SKC,0.00,VWS V12.07,2013-04-19 16:51:00,
2013-04-19 11:58:00,42.8,30.3,29.89,WNW,293,9.0,28.0,61,0.00,,SKC,0.00,VWS V12.07,2013-04-19 16:58:00,
2013-04-19 12:04:00,42.3,29.0,29.88,West,271,17.0,23.0,59,0.00,,SKC,0.00,VWS V12.07,2013-04-19 17:04:00,
2013-04-19 12:09:00,42.5,30.8,29.89,WNW,302,12.0,23.0,63,0.00,,SKC,0.00,VWS V12.07,2013-04-19 17:09:00,
2013-04-19 12:15:00,42.7,29.8,29.89,WNW,293,18.0,23.0,60,0.00,,SKC,0.00,VWS V12.07,2013-04-19 17:15:00,
2013-04-19 12:21:00,42.7,29.8,29.89,WNW,300,28.0,29.0,60,0.00,,SKC,0.00,VWS V12.07,2013-04-19 17:21:00,
2013-04-19 12:28:00,43.3,30.0,29.89,WNW,283,13.0,29.0,59,0.00,,SKC,0.00,VWS V12.07,2013-04-19 17:28:00,
2013-04-19 12:34:00,43.2,30.3,29.89,WSW,249,13.0,25.0,60,0.00,,SKC,0.00,VWS V12.07,2013-04-19 17:34:00,
2013-04-19 12:40:00,43.7,31.1,29.89,NW,314,19.0,27.0,61,0.00,,SKC,0.00,VWS V12.07,2013-04-19 17:40:00,
2013-04-19 12:46:00,43.7,29.9,29.89,WNW,293,9.0,27.0,58,0.00,,SKC,0.00,VWS V12.07,2013-04-19 17:46:00,
2013-04-19 12:53:00,43.4,28.8,29.90,WNW,283,19.0,28.0,56,0.00,,SKC,0.00,VWS V12.07,2013-04-19 17:53:00,
2013-04-19 12:59:00,43.8,29.6,29.89,WNW,283,4.0,28.0,57,0.00,,SKC,0.00,VWS V12.07,2013-04-19 17:59:00,
2013-04-19 13:06:00,44.1,29.9,29.90,WNW,288,8.0,23.0,57,0.00,,SKC,0.00,VWS V12.07,2013-04-19 18:06:00,
2013-04-19 13:13:00,44.5,30.2,29.90,WSW,247,13.0,24.0,57,0.00,,SKC,0.00,VWS V12.07,2013-04-19 18:13:00,
2013-04-19 13:18:00,44.4,29.3,29.90,West,280,12.0,24.0,55,0.00,,SKC,0.00,VWS V12.07,2013-04-19 18:18:00,
2013-04-19 13:24:00,44.4,29.7,29.89,NW,319,10.0,24.0,56,0.00,,SKC,0.00,VWS V12.07,2013-04-19 18:24:00,
2013-04-19 13:30:00,44.8,28.7,29.90,NW,304,11.0,26.0,53,0.00,,SKC,0.00,VWS V12.07,2013-04-19 18:30:00,
2013-04-19 13:36:00,44.9,29.7,29.90,WNW,302,10.0,23.0,55,0.00,,SKC,0.00,VWS V12.07,2013-04-19 18:36:00,
2013-04-19 13:43:00,45.5,28.4,29.90,NW,309,10.0,23.0,51,0.00,,SKC,0.00,VWS V12.07,2013-04-19 18:43:00,
2013-04-19 13:49:00,46.0,29.4,29.90,SW,231,13.0,23.0,52,0.00,,SKC,0.00,VWS V12.07,2013-04-19 18:49:00,
2013-04-19 13:56:00,46.0,27.9,29.90,West,266,16.0,25.0,49,0.00,,SKC,0.00,VWS V12.07,2013-04-19 18:56:00,
2013-04-19 14:03:00,45.8,30.1,29.91,WNW,300,10.0,18.0,54,0.00,,SKC,0.00,VWS V12.07,2013-04-19 19:03:00,
2013-04-19 14:09:00,46.3,29.2,29.90,WNW,302,19.0,25.0,51,0.00,,SKC,0.00,VWS V12.07,2013-04-19 19:09:00,
2013-04-19 14:16:00,46.1,28.5,29.91,WNW,285,8.0,32.0,50,0.00,,SKC,0.00,VWS V12.07,2013-04-19 19:16:00,
2013-04-19 14:24:00,46.5,28.9,29.91,SW,229,8.0,32.0,50,0.00,,SKC,0.00,VWS V12.07,2013-04-19 19:24:00,
2013-04-19 14:29:00,47.1,28.9,29.92,WNW,297,13.0,32.0,49,0.00,,SKC,0.00,VWS V12.07,2013-04-19 19:29:00,
2013-04-19 14:36:00,46.4,28.8,29.92,West,273,17.0,24.0,50,0.00,,SKC,0.00,VWS V12.07,2013-04-19 19:36:00,
2013-04-19 14:43:00,46.7,29.1,29.91,NW,308,18.0,25.0,50,0.00,,SKC,0.00,VWS V12.07,2013-04-19 19:43:00,
2013-04-19 14:49:00,46.6,28.5,29.92,WNW,294,11.0,25.0,49,0.00,,SKC,0.00,VWS V12.07,2013-04-19 19:49:00,
2013-04-19 14:56:00,46.9,29.2,29.92,West,269,16.0,26.0,50,0.00,,SKC,0.00,VWS V12.07,2013-04-19 19:56:00,
2013-04-19 15:03:00,47.1,30.4,29.92,WNW,285,9.0,18.0,52,0.00,,SKC,0.00,VWS V12.07,2013-04-19 20:03:00,
2013-04-19 15:09:00,47.0,28.3,29.92,WNW,294,10.0,26.0,48,0.00,,SKC,0.00,VWS V12.07,2013-04-19 20:09:00,
2013-04-19 15:15:00,47.2,29.5,29.92,WNW,288,13.0,27.0,50,0.00,,SKC,0.00,VWS V12.07,2013-04-19 20:15:00,
2013-04-19 15:21:00,47.2,29.0,29.92,NW,312,13.0,27.0,49,0.00,,SKC,0.00,VWS V12.07,2013-04-19 20:21:00,
2013-04-19 15:28:00,47.7,30.0,29.92,West,276,14.0,27.0,50,0.00,,SKC,0.00,VWS V12.07,2013-04-19 20:28:00,
2013-04-19 15:34:00,47.6,29.4,29.92,WNW,293,10.0,22.0,49,0.00,,SKC,0.00,VWS V12.07,2013-04-19 20:34:00,
2013-04-19 15:40:00,47.5,28.3,29.92,WNW,299,11.0,24.0,47,0.00,,SKC,0.00,VWS V12.07,2013-04-19 20:40:00,
2013-04-19 15:46:00,46.7,28.6,29.93,WNW,291,4.0,26.0,49,0.00,,SKC,0.00,VWS V12.07,2013-04-19 20:46:00,
2013-04-19 15:53:00,46.7,28.1,29.93,NW,319,9.0,26.0,48,0.00,,SKC,0.00,VWS V12.07,2013-04-19 20:53:00,
2013-04-19 15:58:00,47.0,29.8,29.93,WNW,302,14.0,26.0,51,0.00,,SKC,0.00,VWS V12.07,2013-04-19 20:58:00,
2013-04-19 16:04:00,47.3,29.6,29.93,West,270,6.0,10.0,50,0.00,,SKC,0.00,VWS V12.07,2013-04-19 21:04:00,
2013-04-19 16:11:00,46.9,27.7,29.94,NW,308,10.0,25.0,47,0.00,,SKC,0.00,VWS V12.07,2013-04-19 21:11:00,
2013-04-19 16:18:00,46.8,28.7,29.94,WNW,302,16.0,25.0,49,0.00,,SKC,0.00,VWS V12.07,2013-04-19 21:18:00,
2013-04-19 16:24:00,46.5,28.9,29.95,WNW,298,10.0,25.0,50,0.00,,SKC,0.00,VWS V12.07,2013-04-19 21:24:00,
2013-04-19 16:31:00,46.5,27.9,29.95,NW,311,16.0,16.0,48,0.00,,SKC,0.00,VWS V12.07,2013-04-19 21:31:00,
2013-04-19 16:38:00,46.3,28.7,29.95,NNW,327,7.0,19.0,50,0.00,,SKC,0.00,VWS V12.07,2013-04-19 21:38:00,
2013-04-19 16:45:00,46.6,29.0,29.95,NNW,328,13.0,21.0,50,0.00,,SKC,0.00,VWS V12.07,2013-04-19 21:45:00,
2013-04-19 16:52:00,46.5,27.9,29.96,NW,316,7.0,21.0,48,0.00,,SKC,0.00,VWS V12.07,2013-04-19 21:52:00,
2013-04-19 16:59:00,46.5,28.4,29.96,WNW,288,15.0,21.0,49,0.00,,SKC,0.00,VWS V12.07,2013-04-19 21:59:00,
2013-04-19 17:04:00,46.6,28.0,29.96,WNW,290,12.0,22.0,48,0.00,,SKC,0.00,VWS V12.07,2013-04-19 22:04:00,
2013-04-19 17:11:00,46.6,27.5,29.96,West,277,12.0,25.0,47,0.00,,SKC,0.00,VWS V12.07,2013-04-19 22:11:00,
2013-04-19 17:18:00,46.9,27.7,29.97,NW,312,9.0,26.0,47,0.00,,SKC,0.00,VWS V12.07,2013-04-19 22:18:00,
2013-04-19 17:24:00,47.4,28.2,29.97,WNW,293,12.0,26.0,47,0.00,,SKC,0.00,VWS V12.07,2013-04-19 22:24:00,
2013-04-19 17:31:00,47.9,28.1,29.97,NW,305,17.0,20.0,46,0.00,,SKC,0.00,VWS V12.07,2013-04-19 22:31:00,
2013-04-19 17:38:00,48.1,27.8,29.97,West,281,4.0,24.0,45,0.00,,SKC,0.00,VWS V12.07,2013-04-19 22:38:00,
2013-04-19 17:47:00,47.5,28.3,29.97,WSW,249,10.0,24.0,47,0.00,,SKC,0.00,VWS V12.07,2013-04-19 22:47:00,
2013-04-19 17:53:00,47.2,27.5,29.98,NW,309,14.0,24.0,46,0.00,,SKC,0.00,VWS V12.07,2013-04-19 22:53:00,
2013-04-19 17:59:00,47.5,27.8,29.98,WNW,285,14.0,25.0,46,0.00,,SKC,0.00,VWS V12.07,2013-04-19 22:59:00,
2013-04-19 18:06:00,47.1,27.4,29.98,NW,304,13.0,20.0,46,0.00,,SKC,0.00,VWS V12.07,2013-04-19 23:06:00,
2013-04-19 18:13:00,46.7,27.6,29.98,NW,316,10.0,20.0,47,0.00,,SKC,0.00,VWS V12.07,2013-04-19 23:13:00,
2013-04-19 18:18:00,46.7,27.6,29.99,NW,310,18.0,20.0,47,0.00,,SKC,0.00,VWS V12.07,2013-04-19 23:18:00,
2013-04-19 18:24:00,46.7,27.0,29.98,WNW,288,8.0,22.0,46,0.00,,SKC,0.00,VWS V12.07,2013-04-19 23:24:00,
2013-04-19 18:30:00,47.1,27.9,29.98,WNW,302,6.0,22.0,47,0.00,,SKC,0.00,VWS V12.07,2013-04-19 23:30:00,
2013-04-19 18:36:00,47.2,28.0,29.99,WNW,294,16.0,20.0,47,0.00,,SKC,0.00,VWS V12.07,2013-04-19 23:36:00,
2013-04-19 18:43:00,47.1,27.9,29.99,NW,321,8.0,20.0,47,0.00,,SKC,0.00,VWS V12.07,2013-04-19 23:43:00,
2013-04-19 18:48:00,46.8,27.6,29.99,WNW,302,12.0,21.0,47,0.00,,SKC,0.00,VWS V12.07,2013-04-19 23:48:00,
2013-04-19 18:54:00,46.7,27.6,30.00,WNW,283,5.0,21.0,47,0.00,,SKC,0.00,VWS V12.07,2013-04-19 23:54:00,
2013-04-19 19:01:00,47.1,27.4,30.00,NW,321,7.0,7.0,46,0.00,,SKC,0.00,VWS V12.07,2013-04-20 00:01:00,
2013-04-19 19:08:00,47.1,27.4,30.00,WNW,302,5.0,15.0,46,0.00,,SKC,0.00,VWS V12.07,2013-04-20 00:08:00,
2013-04-19 19:14:00,46.8,27.6,30.01,NW,309,8.0,17.0,47,0.00,,SKC,0.00,VWS V12.07,2013-04-20 00:14:00,
2013-04-19 19:20:00,46.4,26.8,30.01,WNW,293,8.0,17.0,46,0.00,,SKC,0.00,VWS V12.07,2013-04-20 00:20:00,
2013-04-19 19:26:00,46.1,26.5,30.01,NW,305,12.0,22.0,46,0.00,,SKC,0.00,VWS V12.07,2013-04-20 00:26:00,
2013-04-19 19:33:00,46.0,26.9,30.01,WNW,300,12.0,18.0,47,0.00,,SKC,0.00,VWS V12.07,2013-04-20 00:33:00,
2013-04-19 19:38:00,45.8,27.2,30.02,WNW,300,5.0,18.0,48,0.00,,SKC,0.00,VWS V12.07,2013-04-20 00:38:00,
2013-04-19 19:44:00,45.5,28.0,30.02,West,278,6.0,18.0,50,0.00,,SKC,0.00,VWS V12.07,2013-04-20 00:44:00,
2013-04-19 19:49:00,45.2,27.7,30.02,West,273,4.0,18.0,50,0.00,,SKC,0.00,VWS V12.07,2013-04-20 00:49:00,
2013-04-19 19:56:00,44.9,27.9,30.02,West,278,6.0,18.0,51,0.00,,SKC,0.00,VWS V12.07,2013-04-20 00:56:00,
2013-04-19 20:03:00,44.7,28.2,30.03,NW,305,6.0,8.0,52,0.00,,SKC,0.00,VWS V12.07,2013-04-20 01:03:00,
2013-04-19 20:09:00,44.7,28.2,30.03,WNW,287,6.0,11.0,52,0.00,,SKC,0.00,VWS V12.07,2013-04-20 01:09:00,
2013-04-19 20:16:00,44.8,28.3,30.03,West,278,5.0,11.0,52,0.00,,SKC,0.00,VWS V12.07,2013-04-20 01:16:00,
2013-04-19 20:23:00,44.6,28.5,30.04,NW,321,6.0,11.0,53,0.00,,SKC,0.00,VWS V12.07,2013-04-20 01:23:00,
2013-04-19 20:28:00,44.5,28.5,30.04,WNW,295,6.0,11.0,53,0.00,,SKC,0.00,VWS V12.07,2013-04-20 01:28:00,
2013-04-19 20:34:00,44.4,28.4,30.04,NW,317,4.0,7.0,53,0.00,,SKC,0.00,VWS V12.07,2013-04-20 01:34:00,
2013-04-19 20:41:00,44.4,28.4,30.05,WNW,298,5.0,9.0,53,0.00,,SKC,0.00,VWS V12.07,2013-04-20 01:41:00,
2013-04-19 20:48:00,44.3,28.7,30.05,WNW,298,5.0,10.0,54,0.00,,SKC,0.00,VWS V12.07,2013-04-20 01:48:00,
2013-04-19 20:54:00,44.1,28.1,30.05,WNW,288,3.0,10.0,53,0.00,,SKC,0.00,VWS V12.07,2013-04-20 01:54:00,
2013-04-19 21:01:00,43.8,28.2,30.06,WNW,302,5.0,5.0,54,0.00,,SKC,0.00,VWS V12.07,2013-04-20 02:01:00,
2013-04-19 21:08:00,43.4,28.8,30.06,NW,312,2.0,5.0,56,0.00,,SKC,0.00,VWS V12.07,2013-04-20 02:08:00,
2013-04-19 21:14:00,43.1,28.5,30.06,NW,315,3.0,5.0,56,0.00,,SKC,0.00,VWS V12.07,2013-04-20 02:14:00,
2013-04-19 21:21:00,42.8,28.6,30.07,WNW,296,3.0,5.0,57,0.00,,SKC,0.00,VWS V12.07,2013-04-20 02:21:00,
2013-04-19 21:28:00,42.5,28.8,30.07,WNW,285,3.0,5.0,58,0.00,,SKC,0.00,VWS V12.07,2013-04-20 02:28:00,
2013-04-19 21:33:00,42.2,28.9,30.07,WNW,284,1.0,5.0,59,0.00,,SKC,0.00,VWS V12.07,2013-04-20 02:33:00,
2013-04-19 21:39:00,41.9,29.0,30.08,WNW,295,1.0,5.0,60,0.00,,SKC,0.00,VWS V12.07,2013-04-20 02:39:00,
2013-04-19 21:45:00,41.7,28.9,30.08,WNW,294,3.0,5.0,60,0.00,,SKC,0.00,VWS V12.07,2013-04-20 02:45:00,
2013-04-19 21:51:00,41.5,28.7,30.08,WNW,302,3.0,5.0,60,0.00,,SKC,0.00,VWS V12.07,2013-04-20 02:51:00,
2013-04-19 21:58:00,41.2,28.8,30.08,WNW,294,3.0,5.0,61,0.00,,SKC,0.00,VWS V12.07,2013-04-20 02:58:00,
2013-04-19 22:03:00,41.1,28.7,30.09,WNW,290,3.0,3.0,61,0.00,,SKC,0.00,VWS V12.07,2013-04-20 03:03:00,
2013-04-19 22:09:00,41.1,28.7,30.09,WNW,297,3.0,5.0,61,0.00,,SKC,0.00,VWS V12.07,2013-04-20 03:09:00,
2013-04-19 22:16:00,41.0,28.6,30.09,NW,305,4.0,6.0,61,0.00,,SKC,0.00,VWS V12.07,2013-04-20 03:16:00,
2013-04-19 22:23:00,41.1,28.3,30.09,NNW,333,4.0,6.0,60,0.00,,SKC,0.00,VWS V12.07,2013-04-20 03:23:00,
2013-04-19 22:29:00,41.0,28.2,30.09,NW,309,3.0,7.0,60,0.00,,SKC,0.00,VWS V12.07,2013-04-20 03:29:00,
2013-04-19 22:36:00,41.0,28.2,30.09,NW,308,2.0,7.0,60,0.00,,SKC,0.00,VWS V12.07,2013-04-20 03:36:00,
2013-04-19 22:43:00,40.9,28.1,30.09,NW,313,4.0,7.0,60,0.00,,SKC,0.00,VWS V12.07,2013-04-20 03:43:00,
2013-04-19 22:49:00,40.7,27.9,30.10,NW,322,5.0,7.0,60,0.00,,SKC,0.00,VWS V12.07,2013-04-20 03:49:00,
2013-04-19 22:56:00,40.6,27.8,30.10,NW,323,5.0,7.0,60,0.00,,SKC,0.00,VWS V12.07,2013-04-20 03:56:00,
2013-04-19 23:03:00,40.6,27.8,30.10,NW,314,4.0,5.0,60,0.00,,SKC,0.00,VWS V12.07,2013-04-20 04:03:00,
2013-04-19 23:06:00,40.5,27.7,30.10,WNW,291,3.0,5.0,60,0.00,,SKC,0.00,VWS V12.07,2013-04-20 04:06:00,
2013-04-19 23:09:00,40.5,27.7,30.10,NW,319,4.0,7.0,60,0.00,,SKC,0.00,VWS V12.07,2013-04-20 04:09:00,
2013-04-19 23:16:00,40.4,27.6,30.10,NW,316,4.0,7.0,60,0.00,,SKC,0.00,VWS V12.07,2013-04-20 04:16:00,
2013-04-19 23:19:00,40.4,28.0,30.10,WNW,302,3.0,7.0,61,0.00,,SKC,0.00,VWS V12.07,2013-04-20 04:19:00,
2013-04-19 23:26:00,40.3,27.9,30.11,NNW,331,1.0,8.0,61,0.00,,SKC,0.00,VWS V12.07,2013-04-20 04:26:00,
2013-04-19 23:33:00,40.1,27.8,30.11,NW,319,2.0,6.0,61,0.00,,SKC,0.00,VWS V12.07,2013-04-20 04:33:00,
2013-04-19 23:39:00,40.0,27.6,30.11,WNW,294,3.0,6.0,61,0.00,,SKC,0.00,VWS V12.07,2013-04-20 04:39:00,
2013-04-19 23:46:00,39.9,28.0,30.11,NW,313,2.0,6.0,62,0.00,,SKC,0.00,VWS V12.07,2013-04-20 04:46:00,
2013-04-19 23:53:00,39.6,27.7,30.11,WNW,297,1.0,9.0,62,0.00,,SKC,0.00,VWS V12.07,2013-04-20 04:53:00,
2013-04-19 23:59:00,39.3,27.8,30.12,NW,323,2.0,9.0,63,0.00,,SKC,0.00,VWS V12.07,2013-04-20 04:59:00,